Time;durP1;ratioP1;P1;durP2;ratioP2;P2;SDS_P1;SDS_P2;PMS_P1;PMS_P2;Temp;Humidity;BMP_temperature;BMP_pressure;BME280_temperature;BME280_humidity;BME280_pressure;Samples;Min_cycle;Max_cycle;Signal;HPM_P1;HPM_P2
2022/12/13 00:02:24;;;;;;;33.05;13.75;;;;;;;;;;5106191;28;20539;-74
2022/12/13 00:04:51;;;;;;;35.58;14.82;;;;;;;;;;5100256;28;20078;-75
2022/12/13 00:07:17;;;;;;;29.95;13.30;;;;;;;;;;5087412;28;20056;-74
2022/12/13 00:09:43;;;;;;;37.50;13.80;;;;;;;;;;5088654;28;20295;-75
2022/12/13 00:12:09;;;;;;;36.42;14.07;;;;;;;;;;5069357;27;20048;-71
2022/12/13 00:14:36;;;;;;;37.08;13.90;;;;;;;;;;5098275;27;20526;-74
2022/12/13 00:17:02;;;;;;;34.22;14.07;;;;;;;;;;5096932;28;20052;-75
2022/12/13 00:19:29;;;;;;;34.60;15.40;;;;;;;;;;5087935;28;20088;-74
2022/12/13 00:21:55;;;;;;;34.72;14.80;;;;;;;;;;5092555;28;20058;-75
2022/12/13 00:24:21;;;;;;;35.30;14.65;;;;;;;;;;5088914;28;20087;-75
2022/12/13 00:26:48;;;;;;;42.00;17.17;;;;;;;;;;5075051;28;20499;-75
2022/12/13 00:29:14;;;;;;;35.30;15.25;;;;;;;;;;5092396;27;20063;-73
2022/12/13 00:31:41;;;;;;;43.65;16.25;;;;;;;;;;5078610;28;20597;-72
2022/12/13 00:34:28;;;;;;;37.95;15.50;;;;;;;;;;5087279;28;20059;-74
2022/12/13 00:36:54;;;;;;;43.28;17.65;;;;;;;;;;5103650;27;20490;-73
2022/12/13 00:39:21;;;;;;;39.58;16.52;;;;;;;;;;5107543;28;20056;-76
2022/12/13 00:41:47;;;;;;;34.65;14.82;;;;;;;;;;5108453;28;20523;-74
2022/12/13 00:44:13;;;;;;;37.85;14.77;;;;;;;;;;5083458;27;20056;-71
2022/12/13 00:46:40;;;;;;;28.70;13.50;;;;;;;;;;5127242;27;20146;-73
2022/12/13 00:49:06;;;;;;;38.03;14.63;;;;;;;;;;5114105;27;20052;-74
2022/12/13 00:51:33;;;;;;;30.13;13.05;;;;;;;;;;5107743;28;20052;-73
2022/12/13 00:53:59;;;;;;;34.72;13.88;;;;;;;;;;5105128;28;20524;-73
2022/12/13 00:56:27;;;;;;;36.17;13.77;;;;;;;;;;5104235;28;20048;-72
2022/12/13 00:58:54;;;;;;;35.60;13.18;;;;;;;;;;5106875;28;20500;-74
2022/12/13 01:01:23;;;;;;;32.35;13.85;;;;;;;;;;5109544;27;20054;-74
2022/12/13 01:03:50;;;;;;;37.25;14.75;;;;;;;;;;5108434;27;20117;-74
2022/12/13 01:06:18;;;;;;;42.45;16.15;;;;;;;;;;5092528;28;20060;-74
2022/12/13 01:08:45;;;;;;;37.05;15.30;;;;;;;;;;5102946;28;20131;-73
2022/12/13 01:11:12;;;;;;;31.10;14.52;;;;;;;;;;5108155;28;20489;-74
2022/12/13 01:13:38;;;;;;;30.45;13.38;;;;;;;;;;5107639;28;20063;-74
2022/12/13 01:16:06;;;;;;;39.15;15.35;;;;;;;;;;5105625;28;20070;-74
2022/12/13 01:18:32;;;;;;;38.40;13.95;;;;;;;;;;5089919;28;20400;-74
2022/12/13 01:21:00;;;;;;;34.92;15.02;;;;;;;;;;5098480;28;20079;-74
2022/12/13 01:23:27;;;;;;;36.97;14.75;;;;;;;;;;5091433;28;20172;-74
2022/12/13 01:25:54;;;;;;;34.47;13.85;;;;;;;;;;5092665;28;20747;-73
2022/12/13 01:28:20;;;;;;;42.58;15.02;;;;;;;;;;5075089;28;20107;-74
2022/12/13 01:30:56;;;;;;;35.17;14.98;;;;;;;;;;5102483;28;20056;-74
2022/12/13 01:33:23;;;;;;;34.55;13.73;;;;;;;;;;5087761;27;20059;-74
2022/12/13 01:35:49;;;;;;;40.75;14.98;;;;;;;;;;5099207;28;20125;-74
2022/12/13 01:38:16;;;;;;;31.40;12.90;;;;;;;;;;5089203;28;20056;-75
2022/12/13 01:40:46;;;;;;;36.15;13.65;;;;;;;;;;5089922;28;20055;-73
2022/12/13 01:43:13;;;;;;;31.80;14.53;;;;;;;;;;5086512;28;20059;-74
2022/12/13 01:45:40;;;;;;;36.95;14.45;;;;;;;;;;5091516;28;20056;-74
2022/12/13 01:48:13;;;;;;;32.40;13.27;;;;;;;;;;5104744;27;20109;-73
2022/12/13 01:50:41;;;;;;;37.90;15.15;;;;;;;;;;5106428;28;20067;-72
2022/12/13 01:53:10;;;;;;;39.80;14.00;;;;;;;;;;5111064;28;20052;-75
2022/12/13 01:55:37;;;;;;;32.85;13.32;;;;;;;;;;5107041;28;20048;-74
2022/12/13 01:58:07;;;;;;;32.22;13.45;;;;;;;;;;5090565;28;20081;-75
2022/12/13 02:00:34;;;;;;;35.90;15.20;;;;;;;;;;5090693;28;20118;-74
2022/12/13 02:03:01;;;;;;;31.85;13.93;;;;;;;;;;5097395;28;20102;-74
2022/12/13 02:05:32;;;;;;;29.98;12.15;;;;;;;;;;5110833;27;20348;-74
2022/12/13 02:08:00;;;;;;;28.35;12.90;;;;;;;;;;5097925;27;20062;-74
2022/12/13 02:10:27;;;;;;;31.85;12.98;;;;;;;;;;5110605;28;20056;-74
2022/12/13 02:12:53;;;;;;;32.20;13.82;;;;;;;;;;5093414;28;20052;-74
2022/12/13 02:15:20;;;;;;;34.50;14.30;;;;;;;;;;5074554;28;20048;-74
2022/12/13 02:17:59;;;;;;;37.28;14.82;;;;;;;;;;5110450;28;20058;-74
2022/12/13 02:20:31;;;;;;;39.28;13.93;;;;;;;;;;5116841;27;20070;-74
2022/12/13 02:23:16;;;;;;;36.42;13.45;;;;;;;;;;5091312;28;20060;-74
2022/12/13 02:25:49;;;;;;;32.80;12.38;;;;;;;;;;5105281;28;20055;-74
2022/12/13 02:28:32;;;;;;;29.60;12.07;;;;;;;;;;5089878;28;20055;-74
2022/12/13 02:31:01;;;;;;;30.58;12.25;;;;;;;;;;5101479;28;20106;-74
2022/12/13 02:33:38;;;;;;;37.25;13.20;;;;;;;;;;5099855;27;20054;-74
2022/12/13 02:36:07;;;;;;;30.38;12.80;;;;;;;;;;5106732;28;20635;-74
2022/12/13 02:38:39;;;;;;;32.03;11.20;;;;;;;;;;5097497;28;20536;-74
2022/12/13 02:41:14;;;;;;;34.35;11.88;;;;;;;;;;5102867;28;20059;-73
2022/12/13 02:43:46;;;;;;;28.65;11.73;;;;;;;;;;5096957;28;20485;-74
2022/12/13 02:46:16;;;;;;;32.22;11.75;;;;;;;;;;5090332;27;20201;-74
2022/12/13 02:48:43;;;;;;;31.50;12.38;;;;;;;;;;5107213;27;20070;-73
2022/12/13 02:51:11;;;;;;;31.08;11.75;;;;;;;;;;5126304;27;20512;-72
2022/12/13 02:53:39;;;;;;;31.75;11.85;;;;;;;;;;5104377;28;20052;-74
2022/12/13 02:56:05;;;;;;;24.17;11.55;;;;;;;;;;5109249;28;20062;-74
2022/12/13 02:58:33;;;;;;;29.95;12.07;;;;;;;;;;5105252;28;20407;-74
2022/12/13 03:01:18;;;;;;;34.95;12.95;;;;;;;;;;5108785;28;20106;-72
2022/12/13 03:04:09;;;;;;;26.80;10.90;;;;;;;;;;5089226;28;20361;-73
2022/12/13 03:06:47;;;;;;;37.78;12.00;;;;;;;;;;5088553;28;20059;-75
2022/12/13 03:09:24;;;;;;;28.10;11.15;;;;;;;;;;5088645;28;20052;-73
2022/12/13 03:15:02;;;;;;;27.33;12.00;;;;;;;;;;5100202;28;20070;-74
2022/12/13 03:17:32;;;;;;;35.95;12.43;;;;;;;;;;5106732;28;20056;-73
2022/12/13 03:19:59;;;;;;;33.30;12.30;;;;;;;;;;5128393;27;20055;-74
2022/12/13 03:22:25;;;;;;;29.65;11.38;;;;;;;;;;5105014;27;20324;-74
2022/12/13 03:24:52;;;;;;;32.70;11.32;;;;;;;;;;5108581;28;20052;-71
2022/12/13 03:27:18;;;;;;;27.80;11.88;;;;;;;;;;5099275;28;20102;-73
2022/12/13 03:29:44;;;;;;;29.90;12.88;;;;;;;;;;5103794;28;20060;-73
2022/12/13 03:32:11;;;;;;;29.10;11.07;;;;;;;;;;5108618;28;20527;-74
2022/12/13 03:34:37;;;;;;;32.33;12.80;;;;;;;;;;5100192;27;20157;-73
2022/12/13 03:37:10;;;;;;;30.67;12.15;;;;;;;;;;5087263;28;20511;-73
2022/12/13 03:39:37;;;;;;;26.88;11.55;;;;;;;;;;5093455;28;20515;-73
2022/12/13 03:42:03;;;;;;;32.05;11.68;;;;;;;;;;5109689;27;20059;-74
2022/12/13 03:44:29;;;;;;;33.63;13.27;;;;;;;;;;5110900;27;20417;-74
2022/12/13 03:46:57;;;;;;;35.20;13.95;;;;;;;;;;5102470;27;20596;-74
2022/12/13 03:49:26;;;;;;;29.00;11.63;;;;;;;;;;5103008;28;20056;-73
2022/12/13 03:52:00;;;;;;;32.28;13.40;;;;;;;;;;5127409;27;20139;-73
2022/12/13 03:54:26;;;;;;;28.10;12.57;;;;;;;;;;5129794;27;20083;-73
2022/12/13 03:56:53;;;;;;;38.10;13.65;;;;;;;;;;5099220;27;20049;-74
2022/12/13 03:59:19;;;;;;;30.20;12.10;;;;;;;;;;5088626;28;20061;-73
2022/12/13 04:01:45;;;;;;;32.70;13.15;;;;;;;;;;5088348;28;20068;-74
2022/12/13 04:04:12;;;;;;;33.15;12.38;;;;;;;;;;5087622;28;20053;-72
2022/12/13 04:06:39;;;;;;;35.63;13.02;;;;;;;;;;5103750;27;20097;-73
2022/12/13 04:09:05;;;;;;;35.00;12.75;;;;;;;;;;5109592;27;20059;-73
2022/12/13 04:14:16;;;;;;;36.08;13.13;;;;;;;;;;5097308;28;20507;-73
2022/12/13 04:16:50;;;;;;;34.38;13.40;;;;;;;;;;5098092;28;21085;-74
2022/12/13 04:19:16;;;;;;;28.92;12.02;;;;;;;;;;5108342;28;20056;-74
2022/12/13 04:21:49;;;;;;;31.02;11.40;;;;;;;;;;5107449;28;20143;-72
2022/12/13 04:24:15;;;;;;;31.27;12.40;;;;;;;;;;5111254;27;20078;-73
2022/12/13 04:26:42;;;;;;;30.60;11.70;;;;;;;;;;5100961;28;20059;-73
2022/12/13 04:29:08;;;;;;;35.37;12.70;;;;;;;;;;5098837;28;20044;-73
2022/12/13 04:31:34;;;;;;;39.28;13.65;;;;;;;;;;5092595;28;20049;-73
2022/12/13 04:34:01;;;;;;;31.50;12.80;;;;;;;;;;5087107;28;20565;-74
2022/12/13 04:36:27;;;;;;;32.40;13.27;;;;;;;;;;5096015;28;20056;-73
2022/12/13 04:38:58;;;;;;;28.38;12.35;;;;;;;;;;5100401;27;20294;-73
2022/12/13 04:41:26;;;;;;;32.85;13.20;;;;;;;;;;5087119;28;20057;-74
2022/12/13 04:44:00;;;;;;;29.85;12.93;;;;;;;;;;5070097;28;20059;-72
2022/12/13 04:46:26;;;;;;;30.27;12.27;;;;;;;;;;5097804;28;20056;-72
2022/12/13 04:48:52;;;;;;;32.97;12.88;;;;;;;;;;5107545;28;20502;-72
2022/12/13 04:51:18;;;;;;;32.07;12.47;;;;;;;;;;5107437;28;20061;-71
2022/12/13 04:53:45;;;;;;;36.73;13.27;;;;;;;;;;5092084;28;20052;-72
2022/12/13 04:56:11;;;;;;;32.03;12.32;;;;;;;;;;5114915;27;20048;-74
2022/12/13 04:58:37;;;;;;;31.98;11.70;;;;;;;;;;5089436;28;20056;-73
2022/12/13 05:01:07;;;;;;;35.60;13.65;;;;;;;;;;5089275;28;20055;-73
2022/12/13 05:03:34;;;;;;;30.55;12.77;;;;;;;;;;5070187;28;20055;-74
2022/12/13 05:06:18;;;;;;;28.05;12.07;;;;;;;;;;5090223;28;20139;-73
2022/12/13 05:08:52;;;;;;;35.88;12.82;;;;;;;;;;5107977;28;20111;-73
2022/12/13 05:11:19;;;;;;;29.00;12.17;;;;;;;;;;5113940;27;20051;-73
2022/12/13 05:13:48;;;;;;;34.85;13.90;;;;;;;;;;5111500;27;20052;-72
2022/12/13 05:16:14;;;;;;;39.30;12.20;;;;;;;;;;5106601;28;20674;-72
2022/12/13 05:18:41;;;;;;;34.03;12.30;;;;;;;;;;5108412;28;20055;-74
2022/12/13 05:21:08;;;;;;;31.45;12.20;;;;;;;;;;5095909;28;20102;-74
2022/12/13 05:23:35;;;;;;;34.53;12.40;;;;;;;;;;5090795;28;20057;-73
2022/12/13 05:26:02;;;;;;;36.53;13.25;;;;;;;;;;5090050;27;20055;-73
2022/12/13 05:28:29;;;;;;;31.75;12.00;;;;;;;;;;5129950;27;20253;-71
2022/12/13 05:30:56;;;;;;;26.88;11.90;;;;;;;;;;5130276;27;20108;-74
2022/12/13 05:33:23;;;;;;;33.60;12.90;;;;;;;;;;5128965;27;20150;-72
2022/12/13 05:35:49;;;;;;;29.80;11.77;;;;;;;;;;5105834;27;20053;-71
2022/12/13 05:38:21;;;;;;;27.10;11.88;;;;;;;;;;5099387;28;20062;-72
2022/12/13 05:40:47;;;;;;;32.20;12.85;;;;;;;;;;5095185;28;20052;-73
2022/12/13 05:43:14;;;;;;;31.30;12.63;;;;;;;;;;5091146;27;20056;-73
2022/12/13 05:45:47;;;;;;;34.45;12.40;;;;;;;;;;5091138;28;20063;-73
2022/12/13 05:48:13;;;;;;;31.43;12.60;;;;;;;;;;5108264;28;20555;-73
2022/12/13 05:50:49;;;;;;;34.10;13.87;;;;;;;;;;5092967;28;20052;-72
2022/12/13 05:53:16;;;;;;;33.70;12.10;;;;;;;;;;5094255;28;20040;-70
2022/12/13 05:55:59;;;;;;;29.75;11.77;;;;;;;;;;5100323;28;20867;-71
2022/12/13 05:58:26;;;;;;;31.15;12.65;;;;;;;;;;5101081;27;20063;-73
2022/12/13 06:01:05;;;;;;;30.37;11.90;;;;;;;;;;5092345;27;20044;-73
2022/12/13 06:03:32;;;;;;;;;;;;;;;;;;5097451;27;20052;-74
2022/12/13 06:06:02;;;;;;;30.77;11.30;;;;;;;;;;5100565;28;47090;-77
2022/12/13 06:08:29;;;;;;;28.85;11.73;;;;;;;;;;5113761;27;20052;-73
2022/12/13 06:10:57;;;;;;;32.88;11.50;;;;;;;;;;5122012;27;20048;-73
2022/12/13 06:13:37;;;;;;;36.73;12.67;;;;;;;;;;5084877;28;20143;-72
2022/12/13 06:16:08;;;;;;;;;;;;;;;;;;5097486;27;20087;-73
2022/12/13 06:18:48;;;;;;;34.47;12.13;;;;;;;;;;5096335;28;48005;-71
2022/12/13 06:21:16;;;;;;;27.67;12.40;;;;;;;;;;5092550;28;20431;-73
2022/12/13 06:23:43;;;;;;;32.40;13.93;;;;;;;;;;5096219;28;20060;-73
2022/12/13 06:26:09;;;;;;;34.20;13.70;;;;;;;;;;5090618;28;20053;-73
2022/12/13 06:28:36;;;;;;;31.93;14.13;;;;;;;;;;5092071;28;20052;-71
2022/12/13 06:31:03;;;;;;;30.90;13.65;;;;;;;;;;5089420;27;20071;-73
2022/12/13 06:33:34;;;;;;;35.60;14.53;;;;;;;;;;5091216;27;20052;-73
2022/12/13 06:36:01;;;;;;;32.85;13.50;;;;;;;;;;5086467;28;20059;-73
2022/12/13 06:38:28;;;;;;;38.55;13.70;;;;;;;;;;5086482;28;20059;-73
2022/12/13 06:41:11;;;;;;;34.83;13.45;;;;;;;;;;5101677;28;20550;-76
2022/12/13 06:43:40;;;;;;;28.17;12.57;;;;;;;;;;5106571;28;20067;-72
2022/12/13 06:46:06;;;;;;;36.03;12.87;;;;;;;;;;5098310;28;20131;-73
2022/12/13 06:48:34;;;;;;;32.07;14.37;;;;;;;;;;5097949;28;20058;-73
2022/12/13 06:51:01;;;;;;;30.00;13.20;;;;;;;;;;5094726;27;20060;-73
2022/12/13 06:53:28;;;;;;;33.60;13.00;;;;;;;;;;5111894;27;20578;-73
2022/12/13 06:55:55;;;;;;;39.97;14.27;;;;;;;;;;5110325;28;20052;-72
2022/12/13 06:58:21;;;;;;;33.08;12.93;;;;;;;;;;5098222;28;20669;-73
2022/12/13 07:00:48;;;;;;;32.40;12.60;;;;;;;;;;5099741;27;20058;-74
2022/12/13 07:03:14;;;;;;;35.05;12.52;;;;;;;;;;5104418;28;20652;-72
2022/12/13 07:05:41;;;;;;;29.17;12.13;;;;;;;;;;5102458;28;20052;-73
2022/12/13 07:08:08;;;;;;;30.70;12.25;;;;;;;;;;5107260;27;20067;-73
2022/12/13 07:10:37;;;;;;;33.45;12.23;;;;;;;;;;5101226;28;20063;-73
2022/12/13 07:13:03;;;;;;;30.73;13.93;;;;;;;;;;5090208;28;20041;-73
2022/12/13 07:15:31;;;;;;;35.07;13.03;;;;;;;;;;5089694;28;20060;-72
2022/12/13 07:17:58;;;;;;;32.75;13.85;;;;;;;;;;5101546;28;20084;-73
2022/12/13 07:20:24;;;;;;;36.92;16.23;;;;;;;;;;5104911;28;20290;-73
2022/12/13 07:22:55;;;;;;;40.45;16.77;;;;;;;;;;5107686;28;20564;-72
2022/12/13 07:25:24;;;;;;;39.97;17.50;;;;;;;;;;5112749;27;20540;-73
2022/12/13 07:27:58;;;;;;;37.37;17.00;;;;;;;;;;5103081;27;20052;-74
2022/12/13 07:30:28;;;;;;;37.22;17.05;;;;;;;;;;5091612;28;20278;-76
2022/12/13 07:32:54;;;;;;;51.20;18.27;;;;;;;;;;5092179;28;20446;-75
2022/12/13 07:35:21;;;;;;;42.00;17.15;;;;;;;;;;5107578;28;20059;-73
2022/12/13 07:37:48;;;;;;;45.80;17.17;;;;;;;;;;5104256;27;20052;-73
2022/12/13 07:40:14;;;;;;;38.97;15.65;;;;;;;;;;5111930;27;20060;-73
2022/12/13 07:42:40;;;;;;;43.75;17.48;;;;;;;;;;5097863;27;20056;-73
2022/12/13 07:45:07;;;;;;;40.33;17.55;;;;;;;;;;5105537;27;20049;-73
2022/12/13 07:47:35;;;;;;;38.47;15.73;;;;;;;;;;5099216;27;21170;-75
2022/12/13 07:50:02;;;;;;;39.92;16.85;;;;;;;;;;5103537;28;20060;-76
2022/12/13 07:52:28;;;;;;;41.72;15.82;;;;;;;;;;5105788;27;20512;-75
2022/12/13 07:54:55;;;;;;;36.95;15.40;;;;;;;;;;5106122;28;20517;-75
2022/12/13 07:57:21;;;;;;;39.92;15.20;;;;;;;;;;5094071;28;20523;-75
2022/12/13 07:59:47;;;;;;;35.28;14.18;;;;;;;;;;5097575;28;20052;-76
2022/12/13 08:02:15;;;;;;;44.47;15.88;;;;;;;;;;5101739;27;20058;-73
2022/12/13 08:04:42;;;;;;;38.63;15.90;;;;;;;;;;5092905;27;20641;-73
2022/12/13 08:07:09;;;;;;;38.58;15.27;;;;;;;;;;5091045;27;20071;-73
2022/12/13 08:09:36;;;;;;;39.95;16.23;;;;;;;;;;5099195;27;20048;-73
2022/12/13 08:12:02;;;;;;;38.88;15.43;;;;;;;;;;5098423;28;20056;-72
2022/12/13 08:14:29;;;;;;;38.55;16.98;;;;;;;;;;5116626;27;20051;-73
2022/12/13 08:16:56;;;;;;;34.70;15.02;;;;;;;;;;5112195;27;20067;-75
2022/12/13 08:19:22;;;;;;;36.58;14.25;;;;;;;;;;5101456;27;20059;-76
2022/12/13 08:21:51;;;;;;;43.97;14.23;;;;;;;;;;5099078;27;20116;-73
2022/12/13 08:24:24;;;;;;;34.25;13.48;;;;;;;;;;5096087;27;20565;-75
2022/12/13 08:26:51;;;;;;;26.88;12.52;;;;;;;;;;5089360;27;20430;-75
2022/12/13 08:29:17;;;;;;;32.47;12.85;;;;;;;;;;5074734;28;20052;-75
2022/12/13 08:31:57;;;;;;;31.98;12.90;;;;;;;;;;5088025;28;20053;-73
2022/12/13 08:34:26;;;;;;;39.78;13.95;;;;;;;;;;5110092;27;20513;-73
2022/12/13 08:36:53;;;;;;;38.40;14.87;;;;;;;;;;5106624;27;20055;-73
2022/12/13 08:39:29;;;;;;;33.43;13.43;;;;;;;;;;5106512;27;20054;-73
2022/12/13 08:41:59;;;;;;;35.60;14.93;;;;;;;;;;5114887;27;20055;-71
2022/12/13 08:44:41;;;;;;;31.25;13.18;;;;;;;;;;5107066;27;20059;-73
2022/12/13 08:47:07;;;;;;;32.47;12.90;;;;;;;;;;5111757;27;20056;-72
2022/12/13 08:49:33;;;;;;;38.35;13.90;;;;;;;;;;5101065;28;20056;-72
2022/12/13 08:52:00;;;;;;;34.28;13.85;;;;;;;;;;5088225;28;20076;-73
2022/12/13 08:54:26;;;;;;;34.45;14.70;;;;;;;;;;5107746;27;20051;-74
2022/12/13 08:56:57;;;;;;;34.40;13.43;;;;;;;;;;5115863;27;20052;-73
2022/12/13 08:59:24;;;;;;;34.33;14.45;;;;;;;;;;5107960;27;20048;-74
2022/12/13 09:01:51;;;;;;;37.33;15.85;;;;;;;;;;5113310;27;20056;-74
2022/12/13 09:04:21;;;;;;;38.08;14.48;;;;;;;;;;5087850;28;20102;-74
2022/12/13 09:06:57;;;;;;;41.83;16.52;;;;;;;;;;5096031;27;20150;-73
2022/12/13 09:09:27;;;;;;;36.65;15.52;;;;;;;;;;5126146;27;20058;-73
2022/12/13 09:11:53;;;;;;;47.55;16.10;;;;;;;;;;5106635;27;20048;-74
2022/12/13 09:14:26;;;;;;;37.92;15.18;;;;;;;;;;5099303;27;20141;-74
2022/12/13 09:16:59;;;;;;;42.67;15.88;;;;;;;;;;5075731;28;20055;-75
2022/12/13 09:19:28;;;;;;;37.33;14.82;;;;;;;;;;5089179;28;20063;-74
2022/12/13 09:22:02;;;;;;;41.28;15.18;;;;;;;;;;5102706;27;20063;-75
2022/12/13 09:24:29;;;;;;;34.55;15.30;;;;;;;;;;5107456;27;20064;-74
2022/12/13 09:27:02;;;;;;;43.60;15.68;;;;;;;;;;5097180;28;20056;-73
2022/12/13 09:29:35;;;;;;;37.50;15.02;;;;;;;;;;5106367;28;20553;-77
2022/12/13 09:32:01;;;;;;;38.15;16.00;;;;;;;;;;5096718;28;20060;-75
2022/12/13 09:34:28;;;;;;;40.70;15.60;;;;;;;;;;5106205;28;20622;-73
2022/12/13 09:36:54;;;;;;;42.58;16.73;;;;;;;;;;5110032;27;20138;-74
2022/12/13 09:39:27;;;;;;;41.65;16.80;;;;;;;;;;5107162;27;20051;-75
2022/12/13 09:41:54;;;;;;;45.38;15.98;;;;;;;;;;5105898;27;20047;-75
2022/12/13 09:44:33;;;;;;;36.15;15.55;;;;;;;;;;5086933;28;20184;-76
2022/12/13 09:47:14;;;;;;;36.63;16.60;;;;;;;;;;5087124;28;20048;-75
2022/12/13 09:49:48;;;;;;;46.15;15.90;;;;;;;;;;5092268;27;20063;-75
2022/12/13 09:52:19;;;;;;;44.05;17.60;;;;;;;;;;5102805;27;20059;-75
2022/12/13 09:54:48;;;;;;;38.97;16.10;;;;;;;;;;5087036;28;20540;-75
2022/12/13 09:57:23;;;;;;;42.53;16.00;;;;;;;;;;5108955;27;20075;-78
2022/12/13 09:59:59;;;;;;;39.83;16.42;;;;;;;;;;5087212;28;20689;-76
2022/12/13 10:02:29;;;;;;;40.25;16.33;;;;;;;;;;5087407;27;20049;-75
2022/12/13 10:05:02;;;;;;;52.72;19.35;;;;;;;;;;5084333;27;20058;-75
2022/12/13 10:07:28;;;;;;;50.80;19.30;;;;;;;;;;5128110;27;20052;-75
2022/12/13 10:09:59;;;;;;;45.60;19.50;;;;;;;;;;5106156;27;20072;-76
2022/12/13 10:12:27;;;;;;;50.28;21.20;;;;;;;;;;5092935;27;20062;-73
2022/12/13 10:14:55;;;;;;;39.72;17.55;;;;;;;;;;5096772;27;20059;-75
2022/12/13 10:17:24;;;;;;;43.28;19.35;;;;;;;;;;5098287;28;20052;-72
2022/12/13 10:19:53;;;;;;;44.05;19.60;;;;;;;;;;5101563;27;20052;-77
2022/12/13 10:22:22;;;;;;;50.38;19.35;;;;;;;;;;5085665;28;20064;-76
2022/12/13 10:25:09;;;;;;;46.15;18.98;;;;;;;;;;5098284;27;20060;-73
2022/12/13 10:27:39;;;;;;;54.40;20.83;;;;;;;;;;5083546;28;20470;-76
2022/12/13 10:30:06;;;;;;;46.20;18.20;;;;;;;;;;5111106;27;20053;-77
2022/12/13 10:32:41;;;;;;;49.03;19.60;;;;;;;;;;5121315;27;20059;-75
2022/12/13 10:35:33;;;;;;;48.30;19.83;;;;;;;;;;5098956;27;20056;-75
2022/12/13 10:38:20;;;;;;;48.45;20.20;;;;;;;;;;5096874;28;20060;-75
2022/12/13 10:40:49;;;;;;;52.80;20.35;;;;;;;;;;5089452;28;20048;-76
2022/12/13 10:43:19;;;;;;;47.50;19.48;;;;;;;;;;5077179;28;20060;-75
2022/12/13 10:45:55;;;;;;;52.05;20.52;;;;;;;;;;5097389;28;20586;-74
2022/12/13 10:48:23;;;;;;;52.80;20.83;;;;;;;;;;5089516;27;20054;-74
2022/12/13 10:51:07;;;;;;;52.88;21.35;;;;;;;;;;5079186;27;20557;-73
2022/12/13 10:53:39;;;;;;;49.55;19.67;;;;;;;;;;5102264;28;20056;-74
2022/12/13 10:56:13;;;;;;;50.72;20.42;;;;;;;;;;5100599;28;20892;-75
2022/12/13 10:58:50;;;;;;;52.58;20.90;;;;;;;;;;5096218;28;20593;-74
2022/12/13 11:01:22;;;;;;;54.47;21.25;;;;;;;;;;5094321;28;20048;-75
2022/12/13 11:04:02;;;;;;;52.50;21.65;;;;;;;;;;5076866;28;20079;-74
2022/12/13 11:06:45;;;;;;;58.17;21.17;;;;;;;;;;5092608;27;20499;-75
2022/12/13 11:09:15;;;;;;;51.58;20.05;;;;;;;;;;5089169;28;20146;-76
2022/12/13 11:11:50;;;;;;;53.65;20.20;;;;;;;;;;5090258;28;20106;-76
2022/12/13 11:14:24;;;;;;;51.80;19.98;;;;;;;;;;5109339;28;20056;-76
2022/12/13 11:16:59;;;;;;;50.13;19.90;;;;;;;;;;5104657;28;20059;-74
2022/12/13 11:19:45;;;;;;;48.60;20.38;;;;;;;;;;5089976;28;20167;-76
2022/12/13 11:22:22;;;;;;;49.13;20.17;;;;;;;;;;5093214;27;20055;-76
2022/12/13 11:24:50;;;;;;;46.38;19.20;;;;;;;;;;5088175;28;20723;-76
2022/12/13 11:27:23;;;;;;;45.63;19.40;;;;;;;;;;5115257;27;20055;-76
2022/12/13 11:29:54;;;;;;;49.72;19.25;;;;;;;;;;5090451;28;20511;-75
2022/12/13 11:32:20;;;;;;;54.20;19.27;;;;;;;;;;5109329;28;20056;-76
2022/12/13 11:34:53;;;;;;;55.28;19.25;;;;;;;;;;5099278;28;20060;-75
2022/12/13 11:37:38;;;;;;;47.50;19.50;;;;;;;;;;5105671;28;20048;-76
2022/12/13 11:40:04;;;;;;;42.65;18.35;;;;;;;;;;5112527;27;20108;-75
2022/12/13 11:42:37;;;;;;;43.97;18.13;;;;;;;;;;5111834;27;20058;-76
2022/12/13 11:45:10;;;;;;;49.60;18.63;;;;;;;;;;5096946;28;20079;-76
2022/12/13 11:47:57;;;;;;;43.70;18.05;;;;;;;;;;5128866;27;20069;-77
2022/12/13 11:50:40;;;;;;;42.28;18.27;;;;;;;;;;5090808;27;20127;-77
2022/12/13 11:53:15;;;;;;;47.60;19.00;;;;;;;;;;5094015;27;20135;-77
2022/12/13 11:55:45;;;;;;;47.60;19.48;;;;;;;;;;5101055;27;20190;-77
2022/12/13 11:58:18;;;;;;;49.97;19.55;;;;;;;;;;5097568;28;20066;-76
2022/12/13 12:01:16;;;;;;;44.72;18.85;;;;;;;;;;5098858;27;20705;-77
2022/12/13 12:03:45;;;;;;;41.35;17.52;;;;;;;;;;5094658;27;20060;-77
2022/12/13 12:06:30;;;;;;;39.25;18.10;;;;;;;;;;5104092;27;20506;-73
2022/12/13 12:09:04;;;;;;;42.00;18.85;;;;;;;;;;5102465;28;20146;-77
2022/12/13 12:11:45;;;;;;;43.00;18.15;;;;;;;;;;5094554;28;20055;-74
2022/12/13 12:14:15;;;;;;;46.00;18.90;;;;;;;;;;5075321;28;20052;-77
2022/12/13 12:16:48;;;;;;;39.28;17.83;;;;;;;;;;5094989;27;20091;-77
2022/12/13 12:19:18;;;;;;;41.45;16.70;;;;;;;;;;5117066;27;20056;-76
2022/12/13 12:21:51;;;;;;;46.28;19.88;;;;;;;;;;5089493;28;20521;-76
2022/12/13 12:24:37;;;;;;;43.95;19.65;;;;;;;;;;5092825;27;20433;-76
2022/12/13 12:27:16;;;;;;;49.85;20.58;;;;;;;;;;5097706;28;20584;-77
2022/12/13 12:30:00;;;;;;;50.13;20.38;;;;;;;;;;5095923;27;20064;-77
2022/12/13 12:32:30;;;;;;;42.13;18.48;;;;;;;;;;5125041;27;20138;-77
2022/12/13 12:35:01;;;;;;;48.28;20.95;;;;;;;;;;5110283;27;20091;-77
2022/12/13 12:37:27;;;;;;;;;;;;;;;;;;5109525;28;20055;-77
2022/12/13 12:40:03;;;;;;;46.38;18.42;;;;;;;;;;5108886;27;45716;-76
2022/12/13 12:42:46;;;;;;;42.28;18.83;;;;;;;;;;5103533;27;20068;-77
2022/12/13 12:45:55;;;;;;;49.58;19.65;;;;;;;;;;5102112;28;20648;-77
2022/12/13 12:48:41;;;;;;;40.83;18.70;;;;;;;;;;5096002;28;20048;-77
2022/12/13 12:51:49;;;;;;;46.33;19.52;;;;;;;;;;5099995;27;20129;-76
2022/12/13 12:54:26;;;;;;;44.92;19.27;;;;;;;;;;5118463;27;20055;-77
2022/12/13 12:57:03;;;;;;;42.88;18.42;;;;;;;;;;5108145;28;20504;-77
2022/12/13 12:59:36;;;;;;;44.42;18.20;;;;;;;;;;5084663;28;20063;-77
2022/12/13 13:02:22;;;;;;;43.85;18.95;;;;;;;;;;5120283;27;20815;-77
2022/12/13 13:04:53;;;;;;;47.17;18.77;;;;;;;;;;5054030;28;20052;-76
2022/12/13 13:07:22;;;;;;;40.60;17.42;;;;;;;;;;5106048;28;20052;-74
2022/12/13 13:09:50;;;;;;;42.67;17.63;;;;;;;;;;5105116;28;20055;-74
2022/12/13 13:12:20;;;;;;;;;;;;;;;;;;5108705;28;20052;-76
2022/12/13 13:14:56;;;;;;;40.28;16.80;;;;;;;;;;5111247;27;46829;-76
2022/12/13 13:17:22;;;;;;;42.45;17.15;;;;;;;;;;5101371;28;20143;-77
2022/12/13 13:19:51;;;;;;;41.28;16.70;;;;;;;;;;5108844;28;20161;-77
2022/12/13 13:22:36;;;;;;;40.78;17.33;;;;;;;;;;5077702;27;20631;-76
2022/12/13 13:25:24;;;;;;;42.72;16.45;;;;;;;;;;5130260;27;20101;-77
2022/12/13 13:27:58;;;;;;;40.10;16.97;;;;;;;;;;5078326;28;20135;-77
2022/12/13 13:30:25;;;;;;;34.40;16.67;;;;;;;;;;5089003;28;20048;-77
2022/12/13 13:32:53;;;;;;;45.25;17.63;;;;;;;;;;5109429;27;20048;-77
2022/12/13 13:35:35;;;;;;;41.05;17.42;;;;;;;;;;5108347;28;20044;-77
2022/12/13 13:38:01;;;;;;;41.13;16.75;;;;;;;;;;5094046;27;20060;-78
2022/12/13 13:40:37;;;;;;;42.33;17.30;;;;;;;;;;5130109;27;20116;-75
2022/12/13 13:43:04;;;;;;;38.50;17.98;;;;;;;;;;5117076;27;20052;-78
2022/12/13 13:45:48;;;;;;;39.03;17.67;;;;;;;;;;5103498;28;20056;-77
2022/12/13 13:48:37;;;;;;;43.65;19.05;;;;;;;;;;5096888;28;20122;-78
2022/12/13 13:51:19;;;;;;;37.33;17.15;;;;;;;;;;5081647;28;20059;-77
2022/12/13 13:54:06;;;;;;;45.65;18.42;;;;;;;;;;5092850;27;20060;-77
2022/12/13 13:56:32;;;;;;;47.40;20.20;;;;;;;;;;5100817;27;20068;-78
2022/12/13 13:59:01;;;;;;;50.72;19.60;;;;;;;;;;5094823;28;20048;-77
2022/12/13 14:01:46;;;;;;;48.88;20.65;;;;;;;;;;5100535;28;20055;-75
2022/12/13 14:04:16;;;;;;;45.97;19.90;;;;;;;;;;5114845;27;20055;-77
2022/12/13 14:06:54;;;;;;;44.67;18.85;;;;;;;;;;5092380;28;20056;-77
2022/12/13 14:09:26;;;;;;;50.35;19.83;;;;;;;;;;5124108;27;20235;-77
2022/12/13 14:11:52;;;;;;;43.47;17.98;;;;;;;;;;5131037;27;20507;-76
2022/12/13 14:14:31;;;;;;;46.42;19.50;;;;;;;;;;5120928;27;20056;-75
2022/12/13 14:17:16;;;;;;;42.65;19.25;;;;;;;;;;5091840;28;20056;-77
2022/12/13 14:19:57;;;;;;;45.22;19.23;;;;;;;;;;5094410;27;20079;-78
2022/12/13 14:22:28;;;;;;;49.67;19.38;;;;;;;;;;5095073;27;20088;-77
2022/12/13 14:25:04;;;;;;;40.80;18.10;;;;;;;;;;5074247;28;20143;-77
2022/12/13 14:27:45;;;;;;;43.63;19.50;;;;;;;;;;5092223;28;20056;-77
2022/12/13 14:30:17;;;;;;;45.13;18.83;;;;;;;;;;5083640;28;20056;-77
2022/12/13 14:32:54;;;;;;;46.17;20.23;;;;;;;;;;5112586;28;20480;-77
2022/12/13 14:35:28;;;;;;;44.65;19.05;;;;;;;;;;5112609;28;20147;-78
2022/12/13 14:37:59;;;;;;;48.90;19.05;;;;;;;;;;5089420;28;20624;-77
2022/12/13 14:40:46;;;;;;;45.00;18.88;;;;;;;;;;5102550;28;20040;-76
2022/12/13 14:43:23;;;;;;;41.53;18.80;;;;;;;;;;5121576;27;20066;-77
2022/12/13 14:46:00;;;;;;;46.53;18.75;;;;;;;;;;5133217;27;20492;-77
2022/12/13 14:48:28;;;;;;;39.20;17.73;;;;;;;;;;5081666;28;20053;-76